Time;durP1;ratioP1;P1;durP2;ratioP2;P2;SDS_P1;SDS_P2;PMS_P1;PMS_P2;Temp;Humidity;BMP_temperature;BMP_pressure;BME280_temperature;BME280_humidity;BME280_pressure;Samples;Min_cycle;Max_cycle;Signal;HPM_P1;HPM_P2
2021/10/06 00:01:01;;;;;;;4.95;1.50;;;;;;;9.99;97.34;96068.94;5074954;28;20478;-81
2021/10/06 00:03:28;;;;;;;5.47;1.20;;;;;;;9.93;97.67;96083.00;5074587;28;20067;-83
2021/10/06 00:05:53;;;;;;;4.35;1.42;;;;;;;9.97;98.08;96092.03;5065538;28;20493;-82
2021/10/06 00:08:21;;;;;;;6.50;1.33;;;;;;;9.99;98.34;96095.22;5075115;28;20060;-83
2021/10/06 00:10:47;;;;;;;3.53;1.20;;;;;;;9.85;98.97;96086.81;5075992;28;20045;-83
2021/10/06 00:13:14;;;;;;;4.28;1.27;;;;;;;9.95;98.26;96084.38;5084576;28;20075;-86
2021/10/06 00:15:40;;;;;;;6.00;1.38;;;;;;;9.93;97.78;96086.44;5075481;28;20076;-83
2021/10/06 00:18:10;;;;;;;3.83;1.20;;;;;;;9.85;97.41;96088.66;5078270;28;20021;-82
2021/10/06 00:20:36;;;;;;;5.05;1.15;;;;;;;9.73;98.79;96084.22;5087696;28;20085;-81
2021/10/06 00:23:01;;;;;;;7.45;1.50;;;;;;;9.70;99.20;96091.78;5091065;28;20041;-80
2021/10/06 00:25:27;;;;;;;6.03;1.30;;;;;;;9.84;98.34;96092.28;5086034;28;20061;-81
2021/10/06 00:27:53;;;;;;;4.63;1.10;;;;;;;9.72;97.85;96094.94;5091163;28;20019;-81
2021/10/06 00:30:18;;;;;;;3.58;1.17;;;;;;;9.72;98.17;96098.38;5094957;28;20043;-82
2021/10/06 00:32:44;;;;;;;4.68;1.35;;;;;;;9.78;97.98;96101.09;5079980;28;20020;-83
2021/10/06 00:35:11;;;;;;;6.97;1.55;;;;;;;9.76;98.61;96100.56;5081740;28;20056;-87
2021/10/06 00:37:40;;;;;;;5.68;1.45;;;;;;;9.77;98.44;96104.78;5083406;28;20040;-85
2021/10/06 00:40:07;;;;;;;5.28;1.35;;;;;;;9.78;98.96;96115.03;5082867;28;20040;-85
2021/10/06 00:42:35;;;;;;;5.22;1.55;;;;;;;9.70;98.85;96110.16;5081498;28;20031;-86
2021/10/06 00:45:03;;;;;;;7.82;1.92;;;;;;;9.76;98.46;96103.19;5086624;28;20020;-85
2021/10/06 00:47:31;;;;;;;4.82;1.30;;;;;;;9.77;98.69;96102.13;5095173;28;20055;-85
2021/10/06 00:49:57;;;;;;;;;;;;;;;9.78;99.11;96098.47;5086447;28;20041;-84
2021/10/06 00:52:24;;;;;;;7.55;1.50;;;;;;;9.77;98.37;96102.13;5093658;28;19930;-84
2021/10/06 00:54:50;;;;;;;6.60;1.55;;;;;;;9.73;98.46;96110.47;5081889;28;20080;-85
2021/10/06 00:57:16;;;;;;;4.80;1.40;;;;;;;9.71;98.50;96104.66;5084286;28;20033;-84
2021/10/06 00:59:41;;;;;;;5.05;1.20;;;;;;;9.72;98.40;96106.25;5080816;28;20025;-81
2021/10/06 01:02:07;;;;;;;4.18;1.40;;;;;;;9.71;97.90;96106.50;5086955;28;20096;-81
2021/10/06 01:04:36;;;;;;;4.45;1.17;;;;;;;9.73;97.61;96109.69;5089099;28;20059;-82
2021/10/06 01:07:02;;;;;;;4.78;1.27;;;;;;;9.73;97.17;96113.09;5060949;28;20063;-82
2021/10/06 01:09:31;;;;;;;7.55;1.33;;;;;;;9.78;96.95;96103.72;5069459;28;20104;-82
2021/10/06 01:11:59;;;;;;;3.95;1.30;;;;;;;9.86;97.04;96117.31;5077765;28;20045;-82
2021/10/06 01:14:25;;;;;;;4.82;1.30;;;;;;;9.76;97.22;96117.09;5075173;28;20049;-82
2021/10/06 01:16:51;;;;;;;5.15;1.50;;;;;;;9.70;96.85;96129.34;5078803;28;20042;-82
2021/10/06 01:19:18;;;;;;;5.15;1.40;;;;;;;9.66;97.05;96120.31;5089026;28;20054;-81
2021/10/06 01:21:45;;;;;;;4.22;1.30;;;;;;;9.72;97.64;96127.28;5080622;28;20040;-82
2021/10/06 01:24:11;;;;;;;4.15;1.27;;;;;;;9.62;98.15;96121.81;5061127;28;20044;-82
2021/10/06 01:26:39;;;;;;;6.10;1.50;;;;;;;9.70;97.85;96123.28;5070260;28;20055;-81
2021/10/06 01:29:07;;;;;;;5.90;1.30;;;;;;;9.58;98.19;96128.56;5064988;28;20507;-82
2021/10/06 01:31:35;;;;;;;3.70;1.20;;;;;;;9.65;96.94;96129.22;5063277;28;20064;-84
2021/10/06 01:34:00;;;;;;;3.88;1.20;;;;;;;9.54;97.53;96127.44;5067487;28;20037;-83
2021/10/06 01:36:26;;;;;;;3.45;1.15;;;;;;;9.50;97.78;96122.88;5071114;28;20044;-83
2021/10/06 01:38:53;;;;;;;4.95;1.25;;;;;;;9.45;96.94;96120.94;5068815;28;20068;-83
2021/10/06 01:41:19;;;;;;;3.78;1.20;;;;;;;9.54;97.25;96124.00;5067960;28;20497;-83
2021/10/06 01:43:44;;;;;;;6.47;1.25;;;;;;;9.57;97.03;96119.06;5076775;28;20139;-82
2021/10/06 01:46:10;;;;;;;5.35;1.20;;;;;;;9.53;97.17;96119.78;5071470;28;20105;-82
2021/10/06 01:48:38;;;;;;;5.15;1.40;;;;;;;9.58;97.21;96133.00;5083468;28;20139;-85
2021/10/06 01:51:04;;;;;;;4.28;1.20;;;;;;;9.59;96.05;96138.03;5080027;28;20064;-87
2021/10/06 01:53:35;;;;;;;3.85;1.20;;;;;;;9.54;96.02;96145.81;5087014;28;20029;-83
2021/10/06 01:56:03;;;;;;;6.68;1.35;;;;;;;9.60;95.93;96139.63;5065398;28;20071;-84
2021/10/06 01:58:29;;;;;;;5.57;1.20;;;;;;;9.61;96.47;96130.72;5059615;28;20029;-85
2021/10/06 02:00:55;;;;;;;5.68;1.58;;;;;;;9.57;96.66;96129.56;5068111;28;20041;-85
2021/10/06 02:03:24;;;;;;;4.20;1.23;;;;;;;9.59;96.36;96142.50;5081267;28;20041;-82
2021/10/06 02:05:51;;;;;;;4.70;1.33;;;;;;;9.52;96.46;96134.72;5061126;28;20037;-85
2021/10/06 02:08:17;;;;;;;2.40;1.10;;;;;;;9.56;96.51;96138.50;5067658;28;20101;-88
2021/10/06 02:10:46;;;;;;;6.28;1.58;;;;;;;9.50;96.84;96134.16;5083335;28;20508;-83
2021/10/06 02:13:14;;;;;;;4.07;1.15;;;;;;;9.49;97.21;96143.06;5074011;28;20041;-86
2021/10/06 02:15:40;;;;;;;5.50;1.40;;;;;;;9.42;97.20;96127.44;5070962;28;20100;-84
2021/10/06 02:18:06;;;;;;;4.72;1.30;;;;;;;9.42;97.10;96122.19;5083039;28;20041;-83
2021/10/06 02:20:35;;;;;;;6.93;1.40;;;;;;;9.51;96.96;96129.72;5081653;28;20045;-81
2021/10/06 02:23:00;;;;;;;6.05;1.30;;;;;;;9.49;97.27;96132.56;5061393;28;20040;-83
2021/10/06 02:25:26;;;;;;;5.35;1.40;;;;;;;9.45;97.44;96128.81;5074020;28;20037;-82
2021/10/06 02:27:52;;;;;;;5.40;1.33;;;;;;;9.47;97.42;96129.38;5052321;28;20124;-83
2021/10/06 02:30:19;;;;;;;8.80;1.67;;;;;;;9.46;98.19;96138.28;5057110;28;20045;-79
2021/10/06 02:32:45;;;;;;;7.38;1.52;;;;;;;9.40;98.07;96140.00;5076838;28;20040;-87
2021/10/06 02:35:13;;;;;;;4.38;1.20;;;;;;;9.38;98.34;96136.00;5085507;28;20029;-82
2021/10/06 02:37:41;;;;;;;4.78;1.40;;;;;;;9.35;98.27;96146.94;5073513;28;20161;-84
2021/10/06 02:40:11;;;;;;;4.70;1.35;;;;;;;9.49;98.13;96143.06;5076583;28;20033;-85
2021/10/06 02:42:38;;;;;;;4.70;1.30;;;;;;;9.43;97.54;96144.00;5076660;28;20037;-83
2021/10/06 02:45:05;;;;;;;4.95;1.52;;;;;;;9.37;97.85;96147.53;5092578;28;20070;-83
2021/10/06 02:47:35;;;;;;;3.97;1.33;;;;;;;9.40;97.96;96150.50;5093539;28;20021;-87
2021/10/06 02:50:02;;;;;;;4.72;1.30;;;;;;;9.52;97.46;96153.09;5086876;28;20051;-81
2021/10/06 02:52:27;;;;;;;7.93;1.50;;;;;;;9.46;97.32;96154.03;5083919;28;20045;-79
2021/10/06 02:54:54;;;;;;;4.43;1.30;;;;;;;9.53;96.74;96151.31;5078593;28;20060;-80
2021/10/06 02:57:19;;;;;;;5.90;1.40;;;;;;;9.53;96.70;96159.97;5073901;28;20103;-81
2021/10/06 02:59:45;;;;;;;4.97;1.42;;;;;;;9.49;97.35;96166.69;5062032;28;20056;-79
2021/10/06 03:02:12;;;;;;;4.25;1.42;;;;;;;9.58;96.72;96167.13;5071100;28;20041;-82
2021/10/06 03:04:40;;;;;;;4.55;1.50;;;;;;;9.43;97.09;96159.75;5091205;28;20034;-81
2021/10/06 03:07:05;;;;;;;5.90;1.60;;;;;;;9.38;97.30;96173.56;5081775;28;20032;-83
2021/10/06 03:09:33;;;;;;;4.72;1.35;;;;;;;9.44;97.66;96172.63;5085505;28;20040;-80
2021/10/06 03:11:59;;;;;;;5.85;1.80;;;;;;;9.39;97.60;96174.34;5085825;28;20045;-80
2021/10/06 03:14:24;;;;;;;5.43;1.80;;;;;;;9.40;97.36;96175.94;5087592;28;20044;-78
2021/10/06 03:16:50;;;;;;;8.23;2.00;;;;;;;9.27;97.61;96176.19;5068401;28;20127;-77
2021/10/06 03:19:16;;;;;;;7.60;1.80;;;;;;;9.40;97.63;96178.56;5066118;28;20045;-81
2021/10/06 03:21:42;;;;;;;5.93;1.73;;;;;;;9.53;96.28;96180.97;5073773;28;20041;-83
2021/10/06 03:24:08;;;;;;;5.18;1.63;;;;;;;9.45;96.71;96178.69;5052285;28;20045;-81
2021/10/06 03:26:36;;;;;;;6.18;1.63;;;;;;;9.31;97.21;96182.56;5058721;28;20067;-81
2021/10/06 03:29:04;;;;;;;;;;;;;;;9.31;97.39;96182.56;5063028;28;20055;-81
2021/10/06 03:31:29;;;;;;;5.07;1.70;;;;;;;9.28;97.19;96188.28;5063925;28;19921;-81
2021/10/06 03:33:57;;;;;;;7.47;1.92;;;;;;;9.28;97.54;96190.91;5059638;28;20068;-82
2021/10/06 03:36:22;;;;;;;5.90;1.97;;;;;;;9.24;97.26;96192.38;5083511;28;20040;-83
2021/10/06 03:38:49;;;;;;;10.32;1.80;;;;;;;9.20;97.97;96194.66;5061640;28;20326;-83
2021/10/06 03:41:18;;;;;;;7.60;2.10;;;;;;;9.29;96.74;96200.38;5071628;28;20032;-84
2021/10/06 03:43:46;;;;;;;7.35;2.00;;;;;;;9.23;97.44;96203.91;5067506;28;20041;-85
2021/10/06 03:46:14;;;;;;;7.30;2.13;;;;;;;9.18;97.65;96215.06;5057720;28;20047;-84
2021/10/06 03:48:39;;;;;;;;;;;;;;;9.26;97.06;96221.84;5063459;28;20036;-82
2021/10/06 03:51:08;;;;;;;9.27;1.88;;;;;;;9.16;97.59;96210.06;5077379;28;20012;-81
2021/10/06 03:53:36;;;;;;;6.88;1.90;;;;;;;9.18;96.99;96215.06;5073937;28;20040;-81
2021/10/06 03:56:03;;;;;;;6.05;2.00;;;;;;;9.18;97.09;96223.75;5068128;28;20090;-82
2021/10/06 03:58:29;;;;;;;6.55;2.17;;;;;;;9.26;97.13;96224.47;5060134;28;20060;-83
2021/10/06 04:00:54;;;;;;;8.43;2.00;;;;;;;9.09;97.99;96217.22;5064207;28;20021;-84
2021/10/06 04:03:22;;;;;;;6.85;1.98;;;;;;;9.02;97.48;96211.28;5089236;28;20780;-82
2021/10/06 04:05:48;;;;;;;6.88;1.83;;;;;;;9.04;97.88;96214.50;5073338;28;20033;-82
2021/10/06 04:08:14;;;;;;;8.35;2.05;;;;;;;9.14;97.35;96219.16;5079161;28;20301;-81
2021/10/06 04:10:40;;;;;;;8.20;2.17;;;;;;;9.22;97.31;96225.94;5068649;28;20032;-84
2021/10/06 04:13:07;;;;;;;4.50;1.42;;;;;;;9.19;96.52;96242.91;5060405;28;20506;-82
2021/10/06 04:15:32;;;;;;;9.63;1.85;;;;;;;9.21;95.88;96230.38;5069610;28;20418;-83
2021/10/06 04:17:58;;;;;;;6.07;1.65;;;;;;;9.17;96.38;96235.28;5074852;28;20132;-83
2021/10/06 04:20:24;;;;;;;6.65;1.85;;;;;;;9.23;96.34;96232.78;5070926;28;20049;-82
2021/10/06 04:22:50;;;;;;;6.40;1.80;;;;;;;9.29;96.09;96237.91;5079776;28;20071;-82
2021/10/06 04:25:15;;;;;;;7.13;1.60;;;;;;;9.22;96.40;96241.69;5065896;28;20425;-80
2021/10/06 04:27:41;;;;;;;5.32;1.63;;;;;;;9.25;95.45;96243.84;5087270;28;20036;-80
2021/10/06 04:30:09;;;;;;;7.55;1.70;;;;;;;9.27;95.20;96247.06;5079456;28;20041;-79
2021/10/06 04:32:35;;;;;;;8.18;1.77;;;;;;;9.25;95.58;96247.25;5087323;28;20036;-82
2021/10/06 04:35:01;;;;;;;7.80;1.58;;;;;;;9.30;95.86;96251.84;5089132;28;20038;-82
2021/10/06 04:37:26;;;;;;;6.07;1.63;;;;;;;9.15;95.93;96247.84;5069770;28;20298;-82
2021/10/06 04:39:52;;;;;;;5.82;1.70;;;;;;;9.20;95.80;96255.00;5067519;28;20090;-81
2021/10/06 04:42:18;;;;;;;6.10;1.80;;;;;;;9.26;96.25;96251.50;5078639;28;20108;-84
2021/10/06 04:44:45;;;;;;;5.55;1.60;;;;;;;9.11;95.70;96251.94;5063241;28;20051;-81
2021/10/06 04:47:12;;;;;;;5.40;1.65;;;;;;;9.19;96.12;96259.47;5057153;28;20077;-82
2021/10/06 04:49:38;;;;;;;5.70;1.67;;;;;;;9.04;96.42;96258.28;5072985;28;20128;-81
2021/10/06 04:52:04;;;;;;;7.55;1.70;;;;;;;9.02;96.04;96257.72;5060968;28;20497;-81
2021/10/06 04:54:30;;;;;;;7.10;2.00;;;;;;;9.10;96.03;96260.84;5072547;28;20044;-82
2021/10/06 04:56:55;;;;;;;6.78;2.33;;;;;;;8.95;97.29;96263.06;5063753;28;20037;-85
2021/10/06 04:59:21;;;;;;;7.10;2.47;;;;;;;9.01;96.77;96262.16;5055477;28;20040;-83
2021/10/06 05:01:46;;;;;;;7.00;1.95;;;;;;;8.90;97.65;96263.72;5078976;28;20025;-81
2021/10/06 05:04:13;;;;;;;8.77;2.17;;;;;;;8.86;97.24;96261.78;5076556;28;20025;-82
2021/10/06 05:06:39;;;;;;;5.93;1.90;;;;;;;8.82;97.54;96271.91;5089994;28;20033;-81
2021/10/06 05:09:05;;;;;;;6.85;2.30;;;;;;;8.76;97.58;96267.53;5080725;28;20024;-82
2021/10/06 05:11:31;;;;;;;6.38;2.10;;;;;;;8.70;98.33;96276.31;5071675;28;20090;-83
2021/10/06 05:13:59;;;;;;;7.65;2.55;;;;;;;8.77;97.91;96276.22;5064794;28;20049;-83
2021/10/06 05:16:25;;;;;;;7.93;2.30;;;;;;;8.80;97.17;96276.56;5070417;28;20075;-82
2021/10/06 05:18:53;;;;;;;9.65;2.50;;;;;;;8.80;97.74;96292.31;5080090;28;20041;-82
2021/10/06 05:21:20;;;;;;;7.38;2.20;;;;;;;8.85;97.20;96299.53;5071301;28;20033;-81
2021/10/06 05:23:46;;;;;;;6.97;2.38;;;;;;;8.90;96.89;96303.06;5062269;28;20022;-84
2021/10/06 05:26:12;;;;;;;9.43;2.47;;;;;;;8.83;97.37;96302.38;5061891;28;20039;-84
2021/10/06 05:28:38;;;;;;;8.25;2.67;;;;;;;8.84;97.31;96303.19;5075768;28;20048;-78
2021/10/06 05:31:04;;;;;;;7.28;2.42;;;;;;;8.89;96.88;96308.56;5066744;28;20044;-78
2021/10/06 05:33:31;;;;;;;9.27;2.47;;;;;;;8.99;96.95;96308.81;5070040;28;20106;-79
2021/10/06 05:35:57;;;;;;;11.35;2.88;;;;;;;8.99;96.19;96310.66;5047568;28;20041;-77
2021/10/06 05:38:26;;;;;;;6.85;2.30;;;;;;;8.98;95.71;96301.94;5055792;28;20068;-78
2021/10/06 05:40:52;;;;;;;7.55;2.38;;;;;;;8.96;95.36;96306.63;5060535;28;20033;-78
2021/10/06 05:43:18;;;;;;;7.65;2.53;;;;;;;8.97;95.54;96316.09;5043708;28;20106;-77
2021/10/06 05:45:43;;;;;;;7.78;2.22;;;;;;;8.99;95.30;96319.31;5043125;28;20532;-78
2021/10/06 05:48:09;;;;;;;6.65;2.22;;;;;;;9.01;95.78;96317.25;5042867;28;20072;-79
2021/10/06 05:50:35;;;;;;;8.93;2.30;;;;;;;9.00;95.40;96323.53;5075480;22;20044;-74
2021/10/06 05:53:02;;;;;;;7.78;2.22;;;;;;;9.08;95.71;96319.78;5077022;28;20127;-74
2021/10/06 05:55:31;;;;;;;7.20;2.10;;;;;;;9.13;94.48;96320.72;5086404;28;20036;-74
2021/10/06 05:57:57;;;;;;;7.57;2.10;;;;;;;9.07;94.20;96328.69;5097581;28;20055;-72
2021/10/06 06:00:23;;;;;;;7.47;2.15;;;;;;;9.09;93.83;96327.44;5084740;28;20040;-74
2021/10/06 06:02:49;;;;;;;6.97;2.00;;;;;;;9.11;94.20;96321.97;5096368;28;20513;-74
2021/10/06 06:05:15;;;;;;;8.18;2.20;;;;;;;9.06;94.14;96330.53;5096531;28;20040;-74
2021/10/06 06:07:41;;;;;;;8.65;2.45;;;;;;;9.04;94.53;96335.19;5096308;28;20527;-74
2021/10/06 06:10:08;;;;;;;6.72;2.38;;;;;;;9.06;94.25;96332.34;5094634;28;20104;-74
2021/10/06 06:12:35;;;;;;;6.90;1.98;;;;;;;9.07;94.54;96337.34;5094992;28;20055;-74
2021/10/06 06:15:00;;;;;;;5.65;1.73;;;;;;;9.12;94.40;96331.44;5094558;28;20381;-75
2021/10/06 06:17:26;;;;;;;8.85;2.28;;;;;;;9.19;93.72;96330.31;5095844;28;20115;-75
2021/10/06 06:19:52;;;;;;;7.03;2.30;;;;;;;9.25;93.46;96335.69;5095729;28;20454;-74
2021/10/06 06:22:17;;;;;;;7.65;2.00;;;;;;;9.20;93.39;96345.06;5095613;28;20040;-74
2021/10/06 06:24:43;;;;;;;7.57;1.70;;;;;;;9.29;93.35;96353.41;5095021;28;20043;-74
2021/10/06 06:27:09;;;;;;;7.38;1.88;;;;;;;9.28;93.42;96356.25;5094229;28;20082;-74
2021/10/06 06:29:36;;;;;;;11.20;2.20;;;;;;;9.28;93.87;96364.16;5095141;28;20407;-73
2021/10/06 06:32:03;;;;;;;5.85;1.75;;;;;;;9.24;93.93;96361.16;5094388;28;20098;-73
2021/10/06 06:34:28;;;;;;;6.40;1.80;;;;;;;9.34;92.99;96368.50;5083080;28;20055;-74
2021/10/06 06:36:54;;;;;;;6.47;1.90;;;;;;;9.49;92.68;96373.34;5074020;28;20048;-73
2021/10/06 06:39:20;;;;;;;6.70;1.52;;;;;;;9.55;93.12;96367.97;5069954;28;20463;-74
2021/10/06 06:41:46;;;;;;;7.13;1.70;;;;;;;9.57;91.34;96371.19;5054117;28;20108;-74
2021/10/06 06:44:11;;;;;;;5.65;1.60;;;;;;;9.53;91.57;96374.50;5054984;28;20045;-74
2021/10/06 06:46:39;;;;;;;5.93;1.80;;;;;;;9.47;91.99;96370.94;5055592;28;20049;-74
2021/10/06 06:49:05;;;;;;;6.85;2.13;;;;;;;9.35;92.05;96364.84;5053905;28;20128;-74
2021/10/06 06:51:31;;;;;;;6.40;1.60;;;;;;;9.16;92.43;96374.59;5094645;28;20111;-73
2021/10/06 06:53:57;;;;;;;6.50;2.20;;;;;;;9.15;93.33;96373.00;5095438;28;20089;-73
2021/10/06 06:56:25;;;;;;;6.97;2.05;;;;;;;9.10;93.07;96381.53;5094947;28;20054;-72
2021/10/06 06:58:53;;;;;;;7.45;1.85;;;;;;;9.14;93.33;96393.19;5096082;28;20482;-73
2021/10/06 07:01:19;;;;;;;8.43;1.98;;;;;;;9.27;92.90;96394.84;5095994;28;20060;-75
2021/10/06 07:03:46;;;;;;;9.82;2.30;;;;;;;9.18;92.37;96391.72;5095840;28;20039;-75
2021/10/06 07:06:14;;;;;;;6.57;2.17;;;;;;;9.40;91.22;96380.72;5094863;28;20495;-76
2021/10/06 07:08:42;;;;;;;7.15;1.80;;;;;;;9.66;91.06;96382.97;5095660;28;20040;-74
2021/10/06 07:11:08;;;;;;;6.95;1.85;;;;;;;9.55;90.86;96383.75;5095344;28;20044;-75
2021/10/06 07:13:33;;;;;;;5.45;1.60;;;;;;;9.68;90.38;96374.84;5093874;28;20047;-75
2021/10/06 07:15:59;;;;;;;7.45;1.70;;;;;;;9.82;89.80;96373.63;5094237;28;20078;-73
2021/10/06 07:18:25;;;;;;;5.32;1.60;;;;;;;9.52;90.63;96378.13;5094494;28;20040;-75
2021/10/06 07:20:52;;;;;;;6.18;1.75;;;;;;;9.32;91.22;96373.97;5095165;28;20036;-75
2021/10/06 07:23:18;;;;;;;7.10;1.92;;;;;;;9.16;92.04;96377.22;5094889;28;20075;-75
2021/10/06 07:25:43;;;;;;;5.75;1.98;;;;;;;9.04;93.45;96386.84;5094688;28;20442;-73
2021/10/06 07:28:09;;;;;;;6.00;1.80;;;;;;;9.00;93.26;96386.50;5092812;28;20044;-74
2021/10/06 07:30:35;;;;;;;7.05;1.77;;;;;;;9.03;93.09;96386.06;5094779;28;20081;-75
2021/10/06 07:33:01;;;;;;;5.63;1.98;;;;;;;8.97;93.94;96392.19;5094455;28;20040;-74
2021/10/06 07:35:26;;;;;;;6.53;2.05;;;;;;;9.02;93.53;96394.94;5092832;28;20040;-73
2021/10/06 07:37:53;;;;;;;6.07;1.95;;;;;;;9.02;92.98;96397.56;5094139;28;20048;-73
2021/10/06 07:40:22;;;;;;;6.95;2.08;;;;;;;9.04;93.07;96392.94;5094486;28;20194;-75
2021/10/06 07:42:47;;;;;;;7.90;2.20;;;;;;;9.07;93.99;96391.66;5094559;28;20055;-74
2021/10/06 07:45:16;;;;;;;6.13;1.85;;;;;;;9.24;91.60;96404.97;5093321;28;20063;-74
2021/10/06 07:47:42;;;;;;;7.13;2.00;;;;;;;9.41;91.16;96398.06;5093590;28;20044;-75
2021/10/06 07:50:11;;;;;;;6.57;2.03;;;;;;;9.75;89.73;96409.72;5094455;28;20051;-75
2021/10/06 07:52:40;;;;;;;7.05;1.70;;;;;;;9.87;88.74;96413.16;5094197;28;20044;-74
2021/10/06 07:55:08;;;;;;;7.93;2.00;;;;;;;10.05;88.23;96407.00;5095766;28;20112;-73
2021/10/06 07:57:35;;;;;;;5.38;1.65;;;;;;;10.10;87.33;96417.66;5094422;28;20131;-74
2021/10/06 08:00:00;;;;;;;5.30;1.60;;;;;;;10.11;86.96;96419.25;5093057;28;20051;-74
2021/10/06 08:02:26;;;;;;;7.55;1.77;;;;;;;10.25;86.09;96425.91;5093226;28;20055;-74
2021/10/06 08:04:52;;;;;;;5.90;1.80;;;;;;;10.43;86.17;96430.25;5094479;28;20044;-74
2021/10/06 08:07:17;;;;;;;6.65;1.52;;;;;;;10.39;84.42;96428.34;5092953;28;20407;-74
2021/10/06 08:09:43;;;;;;;9.48;2.72;;;;;;;10.55;83.92;96425.03;5094903;28;20450;-74
2021/10/06 08:12:11;;;;;;;6.32;1.60;;;;;;;11.01;82.98;96425.97;5095049;28;20118;-72
2021/10/06 08:14:37;;;;;;;6.03;1.77;;;;;;;10.87;82.53;96428.06;5100253;28;20061;-73
2021/10/06 08:17:03;;;;;;;5.82;1.55;;;;;;;10.84;82.70;96422.47;5109006;28;20091;-74
2021/10/06 08:19:29;;;;;;;7.07;1.40;;;;;;;10.90;82.33;96421.53;5111870;28;20044;-74
2021/10/06 08:21:54;;;;;;;5.82;1.50;;;;;;;11.12;81.81;96424.34;5100402;28;20044;-75
2021/10/06 08:24:22;;;;;;;5.57;1.50;;;;;;;11.21;82.04;96423.75;5097269;28;20123;-74
2021/10/06 08:26:48;;;;;;;6.05;1.60;;;;;;;11.34;80.42;96421.84;5096631;28;20139;-73
2021/10/06 08:29:15;;;;;;;5.32;1.63;;;;;;;11.32;79.72;96426.56;5094806;28;20044;-73
2021/10/06 08:31:41;;;;;;;8.50;2.20;;;;;;;11.23;79.29;96432.19;5054663;28;20041;-74
2021/10/06 08:34:07;;;;;;;6.20;1.55;;;;;;;11.44;77.83;96443.13;5072348;28;20518;-73
2021/10/06 08:36:35;;;;;;;3.38;1.20;;;;;;;11.44;77.60;96437.84;5092877;28;20047;-75
2021/10/06 08:39:00;;;;;;;;;;;;;;;11.46;77.73;96435.78;5093436;28;20044;-74
2021/10/06 08:41:32;;;;;;;4.63;1.30;;;;;;;11.49;76.79;96440.59;5093871;28;20384;-74
2021/10/06 08:43:59;;;;;;;5.45;1.40;;;;;;;11.61;76.80;96443.16;5093694;28;20500;-73
2021/10/06 08:46:27;;;;;;;5.67;1.40;;;;;;;11.70;76.68;96439.91;5093774;28;20082;-74
2021/10/06 08:48:56;;;;;;;5.43;1.67;;;;;;;11.65;75.18;96444.31;5096775;28;20051;-75
2021/10/06 08:51:23;;;;;;;4.95;1.40;;;;;;;11.92;75.03;96452.44;5098043;28;20091;-74
2021/10/06 08:53:52;;;;;;;8.13;2.22;;;;;;;12.18;73.48;96451.03;5095150;28;20048;-72
2021/10/06 08:56:18;;;;;;;7.43;1.60;;;;;;;11.94;74.23;96442.44;5097038;28;20044;-75
2021/10/06 08:58:46;;;;;;;5.85;1.60;;;;;;;11.95;72.33;96450.16;5097601;28;20048;-74
2021/10/06 09:01:21;;;;;;;7.25;1.27;;;;;;;12.28;71.81;96459.91;5096706;28;20511;-74
2021/10/06 09:03:53;;;;;;;5.80;1.15;;;;;;;12.42;70.71;96455.09;5096225;28;20050;-74
2021/10/06 09:06:19;;;;;;;4.75;1.23;;;;;;;12.87;70.69;96459.44;5055328;28;20127;-74
2021/10/06 09:08:47;;;;;;;5.03;1.20;;;;;;;13.14;68.28;96457.69;5087267;28;20044;-73
2021/10/06 09:11:17;;;;;;;6.95;1.48;;;;;;;13.38;65.53;96458.25;5096975;28;20113;-72
2021/10/06 09:13:43;;;;;;;3.30;1.00;;;;;;;13.42;64.18;96452.47;5098170;28;20044;-73
2021/10/06 09:16:09;;;;;;;4.07;1.38;;;;;;;13.25;64.09;96458.63;5096682;28;20063;-73
2021/10/06 09:18:38;;;;;;;5.50;1.20;;;;;;;13.21;63.93;96460.16;5099935;28;20036;-73
2021/10/06 09:21:07;;;;;;;5.80;1.40;;;;;;;13.43;64.07;96465.44;5118128;28;20032;-74
2021/10/06 09:23:36;;;;;;;7.25;1.50;;;;;;;13.92;63.30;96468.84;5104141;28;20044;-73
2021/10/06 09:26:05;;;;;;;3.47;1.10;;;;;;;13.75;63.54;96473.44;5096485;28;20138;-75
2021/10/06 09:28:33;;;;;;;4.60;1.30;;;;;;;13.78;62.43;96472.97;5097974;28;20048;-73
2021/10/06 09:31:04;;;;;;;4.13;1.13;;;;;;;13.81;63.05;96477.72;5098565;28;20051;-73
2021/10/06 09:33:38;;;;;;;5.70;1.40;;;;;;;14.28;61.63;96490.34;5097272;28;20044;-73
2021/10/06 09:36:11;;;;;;;6.47;1.55;;;;;;;13.77;61.61;96487.22;5096397;28;20149;-77
2021/10/06 09:38:41;;;;;;;7.47;2.05;;;;;;;13.56;62.57;96490.66;5096051;28;20388;-75
2021/10/06 09:41:30;;;;;;;5.38;1.40;;;;;;;13.21;63.40;96489.22;5097827;28;20044;-75
2021/10/06 09:43:57;;;;;;;4.45;1.10;;;;;;;13.08;64.14;96500.91;5097137;28;20109;-73
2021/10/06 09:46:23;;;;;;;7.28;1.30;;;;;;;13.23;64.44;96502.97;5096509;28;20448;-74
2021/10/06 09:48:48;;;;;;;6.05;1.20;;;;;;;13.21;61.32;96513.00;5098224;28;20050;-75
2021/10/06 09:51:16;;;;;;;3.90;1.05;;;;;;;13.28;60.93;96510.97;5099600;28;20028;-73
2021/10/06 09:53:48;;;;;;;4.90;1.15;;;;;;;13.47;60.58;96506.19;5087848;28;20037;-74
2021/10/06 09:56:16;;;;;;;5.47;1.30;;;;;;;13.79;60.41;96516.06;5075819;28;20037;-74
2021/10/06 09:58:42;;;;;;;5.93;1.30;;;;;;;13.97;60.63;96517.56;5114098;28;20084;-73
2021/10/06 10:01:08;;;;;;;7.13;1.42;;;;;;;13.79;63.01;96516.06;5117803;28;20076;-72
2021/10/06 10:03:35;;;;;;;3.88;1.00;;;;;;;13.93;61.70;96523.34;5118053;28;20066;-73
2021/10/06 10:06:01;;;;;;;7.78;1.55;;;;;;;13.94;61.73;96518.88;5100499;28;20048;-73
2021/10/06 10:08:28;;;;;;;6.50;1.73;;;;;;;14.00;62.20;96517.88;5098312;28;20109;-75
2021/10/06 10:10:54;;;;;;;6.85;1.25;;;;;;;13.73;62.34;96523.13;5097648;28;20042;-73
2021/10/06 10:13:22;;;;;;;6.07;1.13;;;;;;;13.95;60.65;96519.66;5097716;28;20076;-73
2021/10/06 10:15:49;;;;;;;;;;;;;;;13.90;60.61;96526.50;5098247;28;20038;-73
2021/10/06 10:18:17;;;;;;;4.18;1.00;;;;;;;13.80;59.33;96534.31;5096416;28;20380;-75
2021/10/06 10:20:45;;;;;;;;;;;;;;;13.61;59.32;96536.50;5098090;28;20063;-73
2021/10/06 10:23:17;;;;;;;4.63;1.00;;;;;;;13.62;59.17;96538.09;5097119;28;19919;-75
2021/10/06 10:25:46;;;;;;;3.17;0.90;;;;;;;13.75;59.61;96542.19;5096923;28;20036;-73
2021/10/06 10:28:13;;;;;;;6.70;1.23;;;;;;;13.99;59.32;96541.91;5098596;28;20051;-73
2021/10/06 10:30:56;;;;;;;2.30;0.90;;;;;;;13.78;58.27;96525.84;5102673;28;20072;-73
2021/10/06 10:33:37;;;;;;;3.70;0.80;;;;;;;13.50;58.47;96524.19;5096442;28;20093;-74
2021/10/06 10:36:05;;;;;;;3.58;1.08;;;;;;;13.55;58.84;96534.00;5095351;28;20075;-74
2021/10/06 10:38:35;;;;;;;6.55;1.10;;;;;;;13.72;58.71;96526.84;5097527;28;20477;-74
2021/10/06 10:41:05;;;;;;;3.60;1.00;;;;;;;13.96;58.56;96527.34;5096778;28;20036;-75
2021/10/06 10:43:31;;;;;;;3.40;1.00;;;;;;;14.12;57.48;96530.94;5096991;28;20048;-75
2021/10/06 10:46:06;;;;;;;3.78;1.00;;;;;;;14.03;57.74;96521.84;5096947;28;20063;-74
2021/10/06 10:48:39;;;;;;;4.80;1.00;;;;;;;13.84;57.31;96524.84;5096356;28;20039;-74
2021/10/06 10:51:14;;;;;;;5.25;1.20;;;;;;;14.12;56.77;96525.66;5095721;28;20078;-74
2021/10/06 10:54:09;;;;;;;5.55;1.60;;;;;;;14.49;53.92;96527.59;5089713;28;20411;-73
2021/10/06 10:56:45;;;;;;;5.07;1.00;;;;;;;14.21;54.81;96529.44;5094384;28;20537;-73
2021/10/06 10:59:12;;;;;;;2.60;0.90;;;;;;;14.36;54.16;96524.28;5096201;28;20044;-74
2021/10/06 11:01:44;;;;;;;4.57;1.10;;;;;;;14.44;53.61;96523.81;5095557;28;20032;-73
2021/10/06 11:04:15;;;;;;;3.10;0.95;;;;;;;14.40;52.92;96524.56;5096410;28;20128;-74
2021/10/06 11:06:44;;;;;;;2.78;1.02;;;;;;;14.49;51.54;96517.81;5096531;28;20055;-75
2021/10/06 11:09:41;;;;;;;5.28;1.00;;;;;;;14.40;52.77;96520.06;5096755;28;20044;-75
2021/10/06 11:12:27;;;;;;;8.98;1.77;;;;;;;14.75;53.21;96512.72;5096669;28;20104;-75
2021/10/06 11:15:21;;;;;;;4.30;1.38;;;;;;;14.48;52.38;96507.47;5096426;28;20044;-75
2021/10/06 11:18:28;;;;;;;5.15;1.10;;;;;;;14.54;54.14;96506.47;5095195;28;20060;-74
2021/10/06 11:21:02;;;;;;;5.20;1.10;;;;;;;14.15;52.95;96503.97;5094373;28;20024;-74
2021/10/06 11:23:54;;;;;;;5.85;1.20;;;;;;;14.28;52.58;96508.88;5096691;28;20122;-75
2021/10/06 11:26:32;;;;;;;5.30;1.65;;;;;;;14.40;52.30;96504.19;5096092;28;20123;-74
2021/10/06 11:29:02;;;;;;;5.38;0.95;;;;;;;14.57;50.59;96505.94;5095068;28;20036;-76
2021/10/06 11:31:30;;;;;;;5.18;1.20;;;;;;;14.28;52.01;96498.28;5095574;28;20059;-74
2021/10/06 11:33:56;;;;;;;4.05;0.90;;;;;;;14.22;51.76;96499.28;5094961;28;20095;-74
2021/10/06 11:36:24;;;;;;;5.88;1.40;;;;;;;14.11;52.06;96502.91;5095834;28;20047;-75
2021/10/06 11:39:00;;;;;;;6.60;1.33;;;;;;;14.32;51.43;96494.09;5094586;28;20044;-73
2021/10/06 11:41:28;;;;;;;4.85;1.10;;;;;;;14.55;50.94;96487.66;5095104;28;20071;-74
2021/10/06 11:43:55;;;;;;;4.28;1.10;;;;;;;14.57;50.91;96495.34;5095123;28;20028;-74